createdAt,value
2017-09-06T00:00:17.767Z,78.28
2017-09-06T00:02:46.820Z,78.21
2017-09-06T00:05:15.876Z,78.35
2017-09-06T00:07:45.503Z,78.41
2017-09-06T00:10:14.612Z,77.99
2017-09-06T00:12:45.407Z,78.08
2017-09-06T00:15:14.489Z,78.13
2017-09-06T00:17:43.549Z,78.03
2017-09-06T00:20:12.588Z,78.06
2017-09-06T00:22:41.644Z,77.55
2017-09-06T00:25:10.693Z,77.75
2017-09-06T00:27:39.749Z,77.81
2017-09-06T00:30:08.804Z,77.19
2017-09-06T00:32:37.892Z,77.23
2017-09-06T00:35:06.937Z,77.19
2017-09-06T00:37:36.040Z,77.16
2017-09-06T00:40:05.072Z,76.87
2017-09-06T00:42:34.132Z,77.25
2017-09-06T00:45:03.265Z,76.67
2017-09-06T00:47:32.323Z,76.80
2017-09-06T00:50:01.359Z,76.49
2017-09-06T00:52:30.420Z,76.48
2017-09-06T00:54:59.468Z,76.38
2017-09-06T00:57:28.540Z,76.44
2017-09-06T00:59:57.627Z,76.14
2017-09-06T01:02:26.681Z,76.15
2017-09-06T01:04:55.744Z,76.36
2017-09-06T01:07:24.804Z,76.32
2017-09-06T01:09:53.842Z,76.16
2017-09-06T01:12:22.892Z,76.45
2017-09-06T01:14:51.980Z,76.00
2017-09-06T01:17:21.057Z,76.12
2017-09-06T01:19:50.114Z,76.26
2017-09-06T01:22:19.183Z,76.27
2017-09-06T01:24:48.231Z,75.87
2017-09-06T01:27:17.288Z,76.40
2017-09-06T01:29:46.341Z,76.17
2017-09-06T01:32:15.410Z,76.04
2017-09-06T01:34:44.499Z,76.04
2017-09-06T01:37:13.532Z,76.27
2017-09-06T01:39:42.620Z,76.12
2017-09-06T01:42:11.670Z,76.24
2017-09-06T01:44:40.721Z,76.23
2017-09-06T01:47:09.777Z,76.33
2017-09-06T01:49:38.855Z,75.91
2017-09-06T01:52:07.903Z,76.15
2017-09-06T01:54:37.016Z,76.22
2017-09-06T01:57:06.100Z,76.04
2017-09-06T01:59:35.150Z,75.86
2017-09-06T02:02:04.257Z,76.04
2017-09-06T02:04:33.319Z,76.24
2017-09-06T02:07:02.390Z,76.25
2017-09-06T02:09:31.428Z,76.37
2017-09-06T02:12:00.472Z,76.46
2017-09-06T02:14:29.536Z,76.45
2017-09-06T02:16:58.592Z,76.46
2017-09-06T02:19:27.635Z,76.45
2017-09-06T02:21:56.680Z,76.52
2017-09-06T02:24:25.747Z,76.86
2017-09-06T02:26:54.815Z,76.56
2017-09-06T02:29:23.890Z,76.56
2017-09-06T02:31:52.964Z,76.98
2017-09-06T02:34:22.047Z,76.99
2017-09-06T02:36:51.129Z,77.16
2017-09-06T02:39:20.189Z,77.29
2017-09-06T02:41:49.252Z,77.54
2017-09-06T02:44:18.685Z,77.64
2017-09-06T02:46:47.728Z,77.85
2017-09-06T02:49:16.751Z,78.03
2017-09-06T02:51:45.836Z,78.29
2017-09-06T02:54:14.875Z,78.33
2017-09-06T02:56:43.939Z,78.21
2017-09-06T02:59:13.033Z,78.29
2017-09-06T03:01:42.103Z,78.41
2017-09-06T03:04:11.159Z,78.40
2017-09-06T03:06:40.239Z,78.77
2017-09-06T03:09:09.267Z,78.68
2017-09-06T03:11:38.353Z,78.56
2017-09-06T03:14:07.437Z,78.86
2017-09-06T03:16:36.498Z,78.82
2017-09-06T03:19:05.769Z,78.68
2017-09-06T03:21:35.738Z,78.76
2017-09-06T03:24:04.830Z,78.77
2017-09-06T03:26:33.849Z,79.06
2017-09-06T03:29:02.931Z,79.09
2017-09-06T03:31:31.960Z,78.95
2017-09-06T03:34:01.268Z,79.02
2017-09-06T03:36:30.330Z,79.15
2017-09-06T03:38:59.371Z,79.05
2017-09-06T03:41:28.426Z,79.11
2017-09-06T03:43:57.477Z,79.36
2017-09-06T03:46:26.521Z,79.30
2017-09-06T03:48:55.739Z,79.43
2017-09-06T03:51:24.811Z,79.36
2017-09-06T03:53:53.897Z,79.40
2017-09-06T03:56:22.980Z,79.23
2017-09-06T03:58:52.063Z,79.11
2017-09-06T04:01:21.115Z,79.17
2017-09-06T04:03:50.540Z,79.38
2017-09-06T04:06:19.604Z,79.43
2017-09-06T04:08:48.667Z,79.63
2017-09-06T04:11:17.737Z,79.40
2017-09-06T04:13:46.807Z,79.32
2017-09-06T04:16:15.873Z,79.33
2017-09-06T04:18:44.935Z,79.22
2017-09-06T04:21:13.979Z,79.04
2017-09-06T04:23:43.028Z,78.99
2017-09-06T04:26:12.085Z,79.25
2017-09-06T04:28:41.169Z,79.41
2017-09-06T04:31:10.237Z,80.29
2017-09-06T04:33:40.053Z,80.05
2017-09-06T04:36:09.228Z,80.11
2017-09-06T04:38:38.280Z,80.20
2017-09-06T04:41:07.355Z,80.62
2017-09-06T04:43:36.393Z,81.19
2017-09-06T04:46:05.691Z,81.14
2017-09-06T04:48:34.744Z,81.50
2017-09-06T04:51:03.797Z,81.75
2017-09-06T04:53:32.843Z,81.48
2017-09-06T04:56:01.909Z,81.65
2017-09-06T04:58:30.960Z,81.75
2017-09-06T05:01:00.005Z,81.91
2017-09-06T05:03:29.102Z,81.54
2017-09-06T05:05:58.383Z,81.84
2017-09-06T05:08:27.450Z,81.55
2017-09-06T05:10:56.521Z,81.41
2017-09-06T05:13:25.571Z,81.75
2017-09-06T05:15:54.640Z,81.51
2017-09-06T05:18:23.717Z,81.26
2017-09-06T05:20:52.799Z,81.30
2017-09-06T05:23:21.859Z,81.61
2017-09-06T05:25:50.887Z,81.82
2017-09-06T05:28:19.941Z,83.10
2017-09-06T05:30:49.013Z,84.23
2017-09-06T05:33:18.064Z,84.78
2017-09-06T05:35:48.172Z,85.25
2017-09-06T05:38:17.236Z,85.77
2017-09-06T05:40:46.307Z,86.10
2017-09-06T05:43:15.322Z,86.26
2017-09-06T05:45:44.372Z,86.33
2017-09-06T05:48:14.212Z,86.94
2017-09-06T05:50:43.273Z,86.82
2017-09-06T05:53:12.368Z,87.14
2017-09-06T05:55:41.628Z,87.23
2017-09-06T05:58:10.716Z,87.70
2017-09-06T06:00:39.813Z,87.42
2017-09-06T06:03:08.917Z,87.53
2017-09-06T06:05:37.975Z,87.57
2017-09-06T06:08:07.054Z,88.07
2017-09-06T06:10:36.096Z,87.75
2017-09-06T06:13:05.201Z,87.70
2017-09-06T06:15:34.287Z,88.14
2017-09-06T06:18:03.678Z,87.71
2017-09-06T06:20:32.827Z,88.38
2017-09-06T06:23:01.908Z,88.02
2017-09-06T06:25:31.013Z,87.84
2017-09-06T06:28:00.045Z,88.25
2017-09-06T06:30:29.096Z,88.53
2017-09-06T06:32:58.143Z,88.61
2017-09-06T06:35:27.211Z,89.04
2017-09-06T06:37:56.275Z,89.13
2017-09-06T06:40:25.307Z,89.25
2017-09-06T06:42:56.228Z,89.34
2017-09-06T06:45:25.231Z,89.41
2017-09-06T06:47:54.298Z,89.39
2017-09-06T06:50:24.421Z,89.68
2017-09-06T06:52:53.487Z,89.66
2017-09-06T06:55:23.325Z,90.02
2017-09-06T06:57:52.361Z,89.72
2017-09-06T07:00:21.442Z,89.45
2017-09-06T07:02:50.878Z,89.35
2017-09-06T07:05:19.936Z,89.67
2017-09-06T07:07:49.007Z,88.98
2017-09-06T07:10:19.146Z,89.28
2017-09-06T07:12:48.246Z,89.06
2017-09-06T07:15:17.560Z,88.70
2017-09-06T07:17:46.665Z,88.48
2017-09-06T07:20:15.841Z,88.52
2017-09-06T07:22:44.886Z,88.38
2017-09-06T07:25:14.295Z,88.46
2017-09-06T07:27:43.411Z,88.37
2017-09-06T07:30:12.688Z,87.96
2017-09-06T07:32:42.504Z,88.31
2017-09-06T07:35:11.585Z,87.89
2017-09-06T07:37:41.433Z,87.53
2017-09-06T07:40:10.541Z,87.30
2017-09-06T07:42:39.682Z,87.78
2017-09-06T07:45:08.737Z,87.84
2017-09-06T07:47:37.847Z,87.86
2017-09-06T07:50:06.888Z,87.72
2017-09-06T07:52:35.976Z,87.81
2017-09-06T07:55:05.014Z,88.14
2017-09-06T07:57:34.094Z,88.06
2017-09-06T08:00:03.131Z,89.00
2017-09-06T08:02:32.196Z,88.90
2017-09-06T08:05:01.257Z,89.67
2017-09-06T08:07:30.325Z,89.59
2017-09-06T08:09:59.728Z,90.54
2017-09-06T08:12:28.781Z,89.38
2017-09-06T08:14:57.833Z,89.95
2017-09-06T08:17:26.872Z,89.68
2017-09-06T08:19:55.966Z,89.63
2017-09-06T08:22:25.037Z,89.99
2017-09-06T08:24:54.085Z,90.92
2017-09-06T08:27:23.127Z,90.50
2017-09-06T08:29:52.215Z,90.64
2017-09-06T08:32:21.311Z,91.28
2017-09-06T08:34:50.345Z,91.07
2017-09-06T08:37:19.401Z,91.12
2017-09-06T08:39:49.223Z,91.19
2017-09-06T08:42:18.289Z,90.54
2017-09-06T08:44:47.443Z,90.13
2017-09-06T08:47:16.549Z,89.77
2017-09-06T08:49:45.584Z,90.06
2017-09-06T08:52:15.399Z,90.26
2017-09-06T08:54:45.248Z,90.36
2017-09-06T08:57:14.321Z,90.20
2017-09-06T08:59:43.381Z,89.69
2017-09-06T09:02:12.464Z,89.82
2017-09-06T09:04:41.545Z,89.42
2017-09-06T09:07:10.791Z,89.07
2017-09-06T09:09:39.858Z,89.21
2017-09-06T09:12:09.507Z,88.70
2017-09-06T09:14:38.569Z,89.49
2017-09-06T09:17:08.205Z,89.12
2017-09-06T09:19:37.276Z,88.36
2017-09-06T09:22:06.342Z,89.00
2017-09-06T09:24:35.397Z,87.01
2017-09-06T09:27:04.477Z,87.54
2017-09-06T09:29:33.535Z,86.72
2017-09-06T09:32:02.573Z,88.27
2017-09-06T09:34:32.403Z,88.24
2017-09-06T09:37:01.493Z,87.51
2017-09-06T09:39:30.535Z,88.01
2017-09-06T09:41:59.621Z,87.67
2017-09-06T09:44:28.674Z,88.06
2017-09-06T09:46:57.754Z,88.04
2017-09-06T09:49:26.834Z,88.14
2017-09-06T09:51:55.937Z,89.21
2017-09-06T09:54:25.032Z,88.43
2017-09-06T09:56:54.949Z,88.86
2017-09-06T09:59:24.013Z,87.04
2017-09-06T10:01:53.068Z,87.72
2017-09-06T10:04:22.927Z,87.01
2017-09-06T10:06:51.999Z,86.77
2017-09-06T10:09:21.086Z,87.62
2017-09-06T10:11:50.156Z,85.91
2017-09-06T10:14:20.241Z,84.88
2017-09-06T10:16:49.277Z,84.42
2017-09-06T10:19:18.357Z,84.18
2017-09-06T10:21:47.445Z,83.74
2017-09-06T10:24:16.496Z,82.15
2017-09-06T10:26:45.560Z,80.16
2017-09-06T10:29:14.655Z,79.79
2017-09-06T10:31:44.527Z,81.14
2017-09-06T10:34:13.574Z,78.63
2017-09-06T10:36:42.649Z,79.71
2017-09-06T10:39:11.729Z,79.17
2017-09-06T10:41:41.592Z,80.50
2017-09-06T10:44:10.637Z,79.01
2017-09-06T10:46:40.485Z,79.34
2017-09-06T10:49:09.659Z,78.02
2017-09-06T10:51:38.713Z,78.22
2017-09-06T10:54:07.807Z,79.54
2017-09-06T10:56:36.892Z,77.01
2017-09-06T10:59:05.995Z,74.10
2017-09-06T11:01:35.056Z,72.62
2017-09-06T11:04:04.171Z,70.76
2017-09-06T11:06:33.241Z,67.95
2017-09-06T11:09:02.287Z,67.15
2017-09-06T11:11:32.148Z,66.94
2017-09-06T11:14:01.637Z,67.23
2017-09-06T11:16:32.398Z,69.49
2017-09-06T11:19:01.441Z,67.17
2017-09-06T11:21:30.507Z,70.40
2017-09-06T11:23:59.757Z,66.53
2017-09-06T11:26:28.837Z,64.75
2017-09-06T11:28:58.064Z,62.30
2017-09-06T11:31:27.148Z,62.42
2017-09-06T11:33:56.217Z,63.07
2017-09-06T11:36:25.341Z,64.87
2017-09-06T11:38:54.380Z,67.83
2017-09-06T11:41:23.419Z,63.25
2017-09-06T11:43:52.528Z,64.99
2017-09-06T11:46:21.616Z,63.55
2017-09-06T11:48:50.706Z,61.40
2017-09-06T11:51:19.765Z,58.95
2017-09-06T11:53:48.863Z,58.22
2017-09-06T11:56:17.937Z,57.27
2017-09-06T11:58:46.990Z,57.08
2017-09-06T12:01:16.381Z,58.13
2017-09-06T12:03:45.463Z,59.05
2017-09-06T12:06:14.521Z,57.38
2017-09-06T12:08:43.635Z,57.45
2017-09-06T12:11:12.700Z,56.86
2017-09-06T12:13:41.763Z,57.40
2017-09-06T12:16:10.823Z,56.03
2017-09-06T12:18:39.965Z,55.40
2017-09-06T12:21:09.156Z,56.18
2017-09-06T12:23:38.231Z,58.20
2017-09-06T12:26:07.607Z,53.34
2017-09-06T12:28:36.787Z,54.14
2017-09-06T12:31:06.148Z,54.72
2017-09-06T12:33:35.240Z,55.80
2017-09-06T12:36:04.308Z,54.52
2017-09-06T12:38:33.399Z,54.53
2017-09-06T12:41:02.466Z,54.91
2017-09-06T12:43:31.516Z,53.69
2017-09-06T12:46:00.578Z,55.39
2017-09-06T12:48:29.656Z,52.89
2017-09-06T12:50:58.695Z,53.44
2017-09-06T12:53:27.758Z,52.64
2017-09-06T12:55:56.823Z,52.95
2017-09-06T12:58:25.898Z,52.44
2017-09-06T13:00:54.965Z,53.49
2017-09-06T13:03:24.121Z,55.06
2017-09-06T13:05:53.202Z,53.22
2017-09-06T13:08:22.263Z,50.35
2017-09-06T13:10:51.340Z,50.85
2017-09-06T13:13:20.404Z,50.57
2017-09-06T13:15:49.456Z,49.62
2017-09-06T13:18:18.551Z,50.04
2017-09-06T13:20:47.632Z,50.68
2017-09-06T13:23:16.699Z,50.52
2017-09-06T13:25:46.315Z,50.21
2017-09-06T13:28:15.659Z,50.43
2017-09-06T13:30:44.730Z,52.95
2017-09-06T13:33:14.608Z,52.02
2017-09-06T13:35:44.755Z,51.42
2017-09-06T13:38:13.841Z,52.65
2017-09-06T13:40:42.884Z,51.60
2017-09-06T13:43:12.875Z,51.62
2017-09-06T13:45:41.934Z,51.34
2017-09-06T13:48:11.037Z,49.69
2017-09-06T13:50:40.132Z,49.71
2017-09-06T13:53:09.209Z,49.23
2017-09-06T13:55:38.397Z,50.16
2017-09-06T13:58:07.463Z,47.21
2017-09-06T14:00:36.869Z,48.45
2017-09-06T14:03:06.309Z,48.85
2017-09-06T14:05:35.635Z,49.40
2017-09-06T14:08:04.979Z,46.86
2017-09-06T14:10:34.033Z,48.69
2017-09-06T14:13:03.347Z,49.17
2017-09-06T14:15:33.910Z,47.92
2017-09-06T14:18:06.040Z,48.44
2017-09-06T14:20:35.140Z,47.46
2017-09-06T14:23:04.230Z,47.20
2017-09-06T14:25:33.300Z,48.08
2017-09-06T14:28:02.339Z,46.93
2017-09-06T14:30:31.464Z,47.23
2017-09-06T14:33:01.285Z,48.24
2017-09-06T14:35:30.370Z,48.70
2017-09-06T14:37:59.438Z,49.58
2017-09-06T14:40:28.818Z,49.63
2017-09-06T14:42:57.959Z,50.57
2017-09-06T14:45:27.778Z,51.00
2017-09-06T14:47:57.190Z,51.55
2017-09-06T14:50:26.292Z,50.28
2017-09-06T14:52:55.373Z,52.18
2017-09-06T14:55:24.462Z,51.50
2017-09-06T14:57:53.757Z,51.84
2017-09-06T15:00:22.837Z,53.00
2017-09-06T15:02:51.881Z,54.22
2017-09-06T15:05:20.976Z,53.34
2017-09-06T15:07:50.004Z,54.13
2017-09-06T15:10:19.130Z,54.74
2017-09-06T15:12:48.188Z,54.33
2017-09-06T15:15:17.276Z,54.55
2017-09-06T15:17:46.378Z,56.52
2017-09-06T15:20:15.432Z,54.53
2017-09-06T15:22:46.482Z,54.39
2017-09-06T15:25:15.544Z,52.64
2017-09-06T15:27:44.947Z,53.24
2017-09-06T15:30:14.320Z,55.77
2017-09-06T15:32:43.388Z,53.83
2017-09-06T15:35:12.451Z,54.99
2017-09-06T15:37:41.600Z,55.19
2017-09-06T15:40:10.684Z,55.31
2017-09-06T15:42:39.768Z,56.39
2017-09-06T15:45:08.836Z,56.76
2017-09-06T15:47:37.909Z,57.55
2017-09-06T15:50:06.989Z,57.88
2017-09-06T15:52:36.051Z,58.05
2017-09-06T15:55:05.153Z,58.52
2017-09-06T15:57:34.225Z,58.68
2017-09-06T16:00:03.276Z,59.38
2017-09-06T16:02:32.800Z,60.21
2017-09-06T16:05:01.851Z,59.41
2017-09-06T16:07:30.955Z,59.69
2017-09-06T16:10:00.262Z,59.85
2017-09-06T16:12:29.354Z,60.33
2017-09-06T16:14:58.446Z,59.60
2017-09-06T16:17:28.254Z,59.27
2017-09-06T16:19:57.324Z,60.21
2017-09-06T16:22:26.377Z,59.82
2017-09-06T16:24:55.420Z,60.35
2017-09-06T16:27:24.525Z,60.39
2017-09-06T16:29:53.583Z,61.05
2017-09-06T16:32:22.656Z,61.28
2017-09-06T16:34:51.704Z,61.39
2017-09-06T16:37:20.806Z,61.74
2017-09-06T16:39:49.847Z,61.14
2017-09-06T16:42:18.924Z,61.12
2017-09-06T16:44:48.004Z,60.28
2017-09-06T16:47:17.117Z,62.10
2017-09-06T16:49:46.212Z,60.43
2017-09-06T16:52:15.313Z,60.08
2017-09-06T16:54:44.406Z,60.23
2017-09-06T16:57:13.647Z,59.52
2017-09-06T16:59:43.513Z,60.74
2017-09-06T17:02:12.568Z,60.80
2017-09-06T17:04:41.697Z,61.86
2017-09-06T17:07:10.776Z,62.42
2017-09-06T17:09:42.744Z,62.94
2017-09-06T17:12:12.086Z,61.93
2017-09-06T17:14:41.131Z,62.29
2017-09-06T17:17:11.014Z,66.89
2017-09-06T17:19:40.076Z,68.70
2017-09-06T17:22:09.160Z,69.04
2017-09-06T17:24:38.238Z,69.14
2017-09-06T17:27:08.453Z,69.69
2017-09-06T17:29:37.586Z,70.67
2017-09-06T17:32:06.739Z,70.49
2017-09-06T17:34:35.811Z,70.70
2017-09-06T17:37:05.623Z,70.62
2017-09-06T17:39:34.672Z,70.84
2017-09-06T17:42:04.239Z,70.25
2017-09-06T17:44:34.053Z,70.68
2017-09-06T17:47:03.160Z,71.78
2017-09-06T17:49:32.220Z,72.63
2017-09-06T17:52:01.305Z,74.25
2017-09-06T17:54:30.346Z,73.74
2017-09-06T17:56:59.436Z,74.48
2017-09-06T17:59:28.480Z,74.72
2017-09-06T18:01:57.528Z,71.80
2017-09-06T18:04:26.609Z,72.02
2017-09-06T18:06:56.252Z,72.18
2017-09-06T18:09:25.665Z,73.50
2017-09-06T18:11:55.325Z,72.15
2017-09-06T18:14:24.439Z,71.80
2017-09-06T18:16:53.517Z,72.16
2017-09-06T18:19:22.651Z,71.96
2017-09-06T18:21:51.761Z,72.32
2017-09-06T18:24:21.625Z,72.72
2017-09-06T18:26:50.724Z,72.83
2017-09-06T18:29:19.920Z,73.58
2017-09-06T18:31:49.022Z,73.16
2017-09-06T18:34:18.089Z,73.53
2017-09-06T18:36:47.951Z,74.17
2017-09-06T18:39:17.032Z,73.15
2017-09-06T18:41:46.092Z,73.79
2017-09-06T18:44:15.284Z,72.89
2017-09-06T18:46:44.320Z,73.40
2017-09-06T18:49:13.405Z,73.15
2017-09-06T18:51:42.442Z,73.22
2017-09-06T18:54:11.534Z,73.32
2017-09-06T18:56:40.604Z,73.22
2017-09-06T18:59:09.662Z,73.77
2017-09-06T19:01:38.766Z,73.42
2017-09-06T19:04:09.276Z,73.65
2017-09-06T19:06:38.365Z,74.06
2017-09-06T19:09:07.539Z,74.01
2017-09-06T19:11:36.586Z,73.64
2017-09-06T19:14:05.719Z,73.30
2017-09-06T19:16:34.754Z,72.92
2017-09-06T19:19:03.901Z,73.02
2017-09-06T19:21:32.934Z,72.70
2017-09-06T19:24:01.985Z,72.74
2017-09-06T19:26:31.067Z,73.18
2017-09-06T19:29:00.184Z,74.47
2017-09-06T19:31:29.254Z,72.88
2017-09-06T19:33:58.296Z,72.52
2017-09-06T19:36:27.401Z,75.42
2017-09-06T19:38:56.457Z,76.40
2017-09-06T19:41:25.517Z,78.31
2017-09-06T19:43:54.597Z,79.43
2017-09-06T19:46:23.670Z,79.15
2017-09-06T19:48:52.751Z,79.73
2017-09-06T19:51:21.815Z,80.65
2017-09-06T19:53:51.661Z,81.41
2017-09-06T19:56:20.732Z,80.01
2017-09-06T19:58:49.785Z,80.36
2017-09-06T20:01:18.832Z,80.86
2017-09-06T20:03:48.091Z,80.94
2017-09-06T20:06:17.383Z,82.37
2017-09-06T20:08:46.421Z,83.63
2017-09-06T20:11:15.504Z,84.70
2017-09-06T20:13:44.572Z,84.08
2017-09-06T20:16:14.246Z,83.81
2017-09-06T20:18:43.307Z,84.39
2017-09-06T20:21:12.378Z,84.54
2017-09-06T20:23:42.217Z,83.94
2017-09-06T20:26:11.327Z,83.23
2017-09-06T20:28:40.381Z,83.16
2017-09-06T20:31:09.702Z,84.02
2017-09-06T20:33:38.779Z,84.28
2017-09-06T20:36:07.848Z,84.80
2017-09-06T20:38:36.959Z,85.06
2017-09-06T20:41:06.819Z,85.29
2017-09-06T20:43:35.893Z,85.24
2017-09-06T20:46:04.990Z,84.79
2017-09-06T20:48:34.048Z,84.23
2017-09-06T20:51:03.152Z,84.65
2017-09-06T20:53:32.221Z,81.39
2017-09-06T20:56:01.303Z,79.65
2017-09-06T20:58:30.370Z,80.33
2017-09-06T21:00:59.431Z,80.42
2017-09-06T21:03:28.587Z,80.34
2017-09-06T21:05:57.644Z,80.16
2017-09-06T21:08:26.731Z,80.24
2017-09-06T21:10:55.931Z,79.65
2017-09-06T21:13:25.004Z,80.55
2017-09-06T21:15:54.055Z,80.06
2017-09-06T21:18:23.142Z,79.81
2017-09-06T21:20:52.219Z,79.99
2017-09-06T21:23:21.307Z,79.96
2017-09-06T21:25:50.351Z,80.55
2017-09-06T21:28:19.403Z,80.48
2017-09-06T21:30:48.486Z,79.69
2017-09-06T21:33:17.682Z,80.15
2017-09-06T21:35:46.782Z,80.01
2017-09-06T21:38:15.800Z,79.94
2017-09-06T21:40:44.884Z,80.16
2017-09-06T21:43:13.937Z,79.95
2017-09-06T21:45:43.005Z,80.03
2017-09-06T21:48:12.100Z,79.87
2017-09-06T21:50:41.171Z,79.88
2017-09-06T21:53:10.384Z,79.54
2017-09-06T21:55:39.423Z,79.60
2017-09-06T21:58:08.551Z,80.76
2017-09-06T22:00:37.620Z,79.95
2017-09-06T22:03:06.741Z,80.50
2017-09-06T22:05:35.841Z,78.92
2017-09-06T22:08:05.220Z,79.21
2017-09-06T22:10:34.275Z,79.04
2017-09-06T22:13:03.343Z,78.99
2017-09-06T22:15:32.434Z,79.33
2017-09-06T22:18:02.261Z,78.50
2017-09-06T22:20:31.361Z,78.93
2017-09-06T22:23:00.696Z,78.77
2017-09-06T22:25:29.761Z,79.46
2017-09-06T22:27:58.807Z,79.50
2017-09-06T22:30:27.885Z,79.21
2017-09-06T22:32:56.939Z,79.25
2017-09-06T22:35:26.029Z,78.64
2017-09-06T22:37:55.099Z,79.31
2017-09-06T22:40:24.137Z,78.23
2017-09-06T22:42:53.214Z,78.45
2017-09-06T22:45:22.276Z,78.47
2017-09-06T22:47:51.337Z,79.03
2017-09-06T22:50:20.445Z,78.67
2017-09-06T22:52:49.525Z,79.13
2017-09-06T22:55:18.588Z,79.74
2017-09-06T22:57:47.668Z,78.94
2017-09-06T23:00:16.728Z,79.09
2017-09-06T23:02:45.860Z,79.54
2017-09-06T23:05:15.075Z,79.98
2017-09-06T23:07:44.180Z,79.43
2017-09-06T23:10:13.252Z,79.24
2017-09-06T23:12:43.099Z,79.82
2017-09-06T23:15:12.207Z,78.98
2017-09-06T23:17:41.280Z,79.46
2017-09-06T23:20:10.348Z,79.67
2017-09-06T23:22:39.400Z,79.18
2017-09-06T23:25:08.713Z,79.50
2017-09-06T23:27:37.776Z,79.91
2017-09-06T23:30:06.849Z,80.38
2017-09-06T23:32:35.905Z,79.90
2017-09-06T23:35:05.002Z,79.66
2017-09-06T23:37:34.066Z,79.92
2017-09-06T23:40:03.108Z,80.54
2017-09-06T23:42:32.162Z,79.92
2017-09-06T23:45:01.246Z,80.45
2017-09-06T23:47:30.288Z,80.30
2017-09-06T23:49:59.356Z,80.73
2017-09-06T23:52:28.415Z,80.80
2017-09-06T23:54:57.465Z,80.56
2017-09-06T23:57:26.510Z,80.67
2017-09-06T23:59:55.589Z,80.75
